createdAt,value
2022-09-17T00:01:31.377Z,77.60
2022-09-17T00:04:04.056Z,77.50
2022-09-17T00:06:33.559Z,77.50
2022-09-17T00:09:01.880Z,77.60
2022-09-17T00:11:34.074Z,77.60
2022-09-17T00:14:04.011Z,77.70
2022-09-17T00:16:34.571Z,77.70
2022-09-17T00:19:03.533Z,77.80
2022-09-17T00:21:32.700Z,78.00
2022-09-17T00:24:03.604Z,78.00
2022-09-17T00:26:33.988Z,78.00
2022-09-17T00:29:02.913Z,78.20
2022-09-17T00:31:31.693Z,78.30
2022-09-17T00:34:00.590Z,78.20
2022-09-17T00:36:29.431Z,78.30
2022-09-17T00:38:59.787Z,78.50
2022-09-17T00:41:30.670Z,78.70
2022-09-17T00:44:01.775Z,78.80
2022-09-17T00:46:34.883Z,79.00
2022-09-17T00:49:07.148Z,79.10
2022-09-17T00:51:38.190Z,79.10
2022-09-17T00:54:09.427Z,79.20
2022-09-17T00:56:40.711Z,79.40
2022-09-17T00:59:10.692Z,79.50
2022-09-17T01:01:39.276Z,79.60
2022-09-17T01:04:07.700Z,79.70
2022-09-17T01:06:41.947Z,79.70
2022-09-17T01:09:28.791Z,79.80
2022-09-17T01:12:15.312Z,79.80
2022-09-17T01:15:01.468Z,80.00
2022-09-17T01:17:35.107Z,80.10
2022-09-17T01:20:34.627Z,80.10
2022-09-17T01:23:29.801Z,80.20
2022-09-17T01:26:12.421Z,80.40
2022-09-17T01:28:46.476Z,80.30
2022-09-17T01:31:36.033Z,80.30
2022-09-17T01:34:14.479Z,80.40
2022-09-17T01:36:56.043Z,80.30
2022-09-17T01:39:33.045Z,79.90
2022-09-17T01:42:11.362Z,79.70
2022-09-17T01:44:47.009Z,79.20
2022-09-17T01:47:22.790Z,79.00
2022-09-17T01:49:54.568Z,78.70
2022-09-17T01:52:24.379Z,78.30
2022-09-17T01:54:56.275Z,78.10
2022-09-17T01:57:29.397Z,78.00
2022-09-17T02:00:03.576Z,77.80
2022-09-17T02:02:38.738Z,77.40
2022-09-17T02:05:10.381Z,77.30
2022-09-17T02:07:43.454Z,77.30
2022-09-17T02:10:18.266Z,77.30
2022-09-17T02:12:50.262Z,77.20
2022-09-17T02:15:25.302Z,77.20
2022-09-17T02:18:00.101Z,77.00
2022-09-17T02:20:37.045Z,77.00
2022-09-17T02:23:13.735Z,76.80
2022-09-17T02:25:47.465Z,76.80
2022-09-17T02:28:22.036Z,76.50
2022-09-17T02:30:50.606Z,76.90
2022-09-17T02:33:21.497Z,76.90
2022-09-17T02:35:49.614Z,77.00
2022-09-17T02:38:23.797Z,77.00
2022-09-17T02:40:56.077Z,76.80
2022-09-17T02:43:33.969Z,77.30
2022-09-17T02:46:17.874Z,77.30
2022-09-17T02:49:11.559Z,77.20
2022-09-17T02:51:48.592Z,77.30
2022-09-17T02:54:27.091Z,77.40
2022-09-17T02:57:06.313Z,77.30
2022-09-17T02:59:42.489Z,77.50
2022-09-17T03:02:18.479Z,77.50
2022-09-17T03:04:50.414Z,77.70
2022-09-17T03:07:21.034Z,77.80
2022-09-17T03:09:49.170Z,78.00
2022-09-17T03:12:18.111Z,78.20
2022-09-17T03:14:46.311Z,78.50
2022-09-17T03:17:14.996Z,78.60
2022-09-17T03:19:43.147Z,78.70
2022-09-17T03:22:12.614Z,78.90
2022-09-17T03:24:40.777Z,79.00
2022-09-17T03:27:08.892Z,79.10
2022-09-17T03:29:36.981Z,79.20
2022-09-17T03:32:05.832Z,79.20
2022-09-17T03:34:33.947Z,79.10
2022-09-17T03:37:02.403Z,79.10
2022-09-17T03:39:32.318Z,79.30
2022-09-17T03:42:00.420Z,79.40
2022-09-17T03:44:28.563Z,79.30
2022-09-17T03:46:56.756Z,79.10
2022-09-17T03:49:25.181Z,78.80
2022-09-17T03:51:53.286Z,78.90
2022-09-17T03:54:21.485Z,79.00
2022-09-17T03:56:50.972Z,78.90
2022-09-17T03:59:19.108Z,79.00
2022-09-17T04:01:47.299Z,78.80
2022-09-17T04:04:18.936Z,78.80
2022-09-17T04:06:47.229Z,78.90
2022-09-17T04:09:15.356Z,78.70
2022-09-17T04:11:43.471Z,78.90
2022-09-17T04:14:12.950Z,78.90
2022-09-17T04:16:41.020Z,79.00
2022-09-17T04:19:09.322Z,79.00
2022-09-17T04:21:37.455Z,79.10
2022-09-17T04:24:05.775Z,79.10
2022-09-17T04:26:33.887Z,78.80
2022-09-17T04:29:02.223Z,79.00
2022-09-17T04:31:31.925Z,79.10
2022-09-17T04:34:00.162Z,79.10
2022-09-17T04:36:28.497Z,79.10
2022-09-17T04:38:56.567Z,78.90
2022-09-17T04:41:24.814Z,79.00
2022-09-17T04:43:52.977Z,79.10
2022-09-17T04:46:21.161Z,79.30
2022-09-17T04:48:50.650Z,79.50
2022-09-17T04:51:18.713Z,79.60
2022-09-17T04:53:46.851Z,79.70
2022-09-17T04:56:15.019Z,79.90
2022-09-17T04:58:43.138Z,80.00
2022-09-17T05:01:11.405Z,79.90
2022-09-17T05:03:39.595Z,80.00
2022-09-17T05:06:09.193Z,79.90
2022-09-17T05:08:37.510Z,80.00
2022-09-17T05:11:06.151Z,79.90
2022-09-17T05:13:34.267Z,79.80
2022-09-17T05:16:02.527Z,79.80
2022-09-17T05:18:30.677Z,79.70
2022-09-17T05:20:59.438Z,79.90
2022-09-17T05:23:28.904Z,80.00
2022-09-17T05:26:00.155Z,79.80
2022-09-17T05:28:28.276Z,80.20
2022-09-17T05:30:56.536Z,80.30
2022-09-17T05:33:24.688Z,80.30
2022-09-17T05:35:52.800Z,80.30
2022-09-17T05:38:20.899Z,80.20
2022-09-17T05:40:50.629Z,80.40
2022-09-17T05:43:19.007Z,80.40
2022-09-17T05:45:47.251Z,80.60
2022-09-17T05:48:16.516Z,80.80
2022-09-17T05:50:44.604Z,81.00
2022-09-17T05:53:13.758Z,80.90
2022-09-17T05:55:41.907Z,80.80
2022-09-17T05:58:16.693Z,80.80
2022-09-17T06:00:48.702Z,80.90
2022-09-17T06:03:18.686Z,81.00
2022-09-17T06:05:54.659Z,81.00
2022-09-17T06:08:23.017Z,80.90
2022-09-17T06:10:51.430Z,80.80
2022-09-17T06:13:21.916Z,80.70
2022-09-17T06:15:53.897Z,80.60
2022-09-17T06:18:24.238Z,80.70
2022-09-17T06:20:56.009Z,80.40
2022-09-17T06:23:24.325Z,80.40
2022-09-17T06:25:55.385Z,80.70
2022-09-17T06:28:25.388Z,80.70
2022-09-17T06:30:54.636Z,80.70
2022-09-17T06:33:25.049Z,80.70
2022-09-17T06:36:00.240Z,81.30
2022-09-17T06:38:28.866Z,81.30
2022-09-17T06:40:59.892Z,81.40
2022-09-17T06:43:29.693Z,81.40
2022-09-17T06:45:59.775Z,81.30
2022-09-17T06:48:28.987Z,81.30
2022-09-17T06:50:57.237Z,81.20
2022-09-17T06:53:26.237Z,81.10
2022-09-17T06:55:57.415Z,80.90
2022-09-17T06:58:31.028Z,81.00
2022-09-17T07:01:01.330Z,80.70
2022-09-17T07:03:35.092Z,80.70
2022-09-17T07:06:04.339Z,80.70
2022-09-17T07:08:34.735Z,80.60
2022-09-17T07:11:05.734Z,80.30
2022-09-17T07:13:35.795Z,80.30
2022-09-17T07:16:05.634Z,80.20
2022-09-17T07:18:34.013Z,80.20
2022-09-17T07:21:03.740Z,80.10
2022-09-17T07:23:33.094Z,79.90
2022-09-17T07:26:02.831Z,79.60
2022-09-17T07:28:31.306Z,79.30
2022-09-17T07:31:04.745Z,79.40
2022-09-17T07:33:33.245Z,79.30
2022-09-17T07:36:03.225Z,79.50
2022-09-17T07:38:32.160Z,79.20
2022-09-17T07:41:01.375Z,78.80
2022-09-17T07:43:31.478Z,78.80
2022-09-17T07:46:02.262Z,78.60
2022-09-17T07:48:31.386Z,78.30
2022-09-17T07:50:59.700Z,78.20
2022-09-17T07:53:28.674Z,78.20
2022-09-17T07:55:58.467Z,78.10
2022-09-17T07:58:30.908Z,78.00
2022-09-17T08:01:03.763Z,77.70
2022-09-17T08:03:31.904Z,77.30
2022-09-17T08:06:04.922Z,76.80
2022-09-17T08:08:33.925Z,76.70
2022-09-17T08:11:03.237Z,76.60
2022-09-17T08:13:31.933Z,76.50
2022-09-17T08:16:02.432Z,75.70
2022-09-17T08:18:31.199Z,76.10
2022-09-17T08:20:59.743Z,76.00
2022-09-17T08:23:28.564Z,74.80
2022-09-17T08:25:57.207Z,74.90
2022-09-17T08:28:27.041Z,74.60
2022-09-17T08:30:55.920Z,74.60
2022-09-17T08:33:25.558Z,73.90
2022-09-17T08:35:54.289Z,74.20
2022-09-17T08:38:22.859Z,73.60
2022-09-17T08:41:04.892Z,73.40
2022-09-17T08:43:36.672Z,74.00
2022-09-17T08:46:05.054Z,73.70
2022-09-17T08:48:43.041Z,73.60
2022-09-17T08:51:24.982Z,73.90
2022-09-17T08:54:01.910Z,74.10
2022-09-17T08:56:33.792Z,73.80
2022-09-17T08:59:21.791Z,73.40
2022-09-17T09:02:02.064Z,73.40
2022-09-17T09:04:58.407Z,73.40
2022-09-17T09:07:29.011Z,73.40
2022-09-17T09:10:06.185Z,73.80
2022-09-17T09:12:36.953Z,73.90
2022-09-17T09:15:09.454Z,73.70
2022-09-17T09:17:43.123Z,73.30
2022-09-17T09:20:19.830Z,72.90
2022-09-17T09:22:50.955Z,73.30
2022-09-17T09:25:24.528Z,72.70
2022-09-17T09:28:04.094Z,72.70
2022-09-17T09:30:41.229Z,72.60
2022-09-17T09:33:15.517Z,72.10
2022-09-17T09:35:46.302Z,71.80
2022-09-17T09:38:23.800Z,71.60
2022-09-17T09:40:58.099Z,71.40
2022-09-17T09:44:02.185Z,71.00
2022-09-17T09:46:41.987Z,70.70
2022-09-17T09:49:18.675Z,70.00
2022-09-17T09:51:59.979Z,70.50
2022-09-17T09:54:40.895Z,70.50
2022-09-17T09:57:13.847Z,70.40
2022-09-17T09:59:42.516Z,70.20
2022-09-17T10:02:11.418Z,70.40
2022-09-17T10:04:39.571Z,70.30
2022-09-17T10:07:10.836Z,69.50
2022-09-17T10:09:46.057Z,69.70
2022-09-17T10:12:18.576Z,69.90
2022-09-17T10:14:47.758Z,70.20
2022-09-17T10:17:23.918Z,70.20
2022-09-17T10:20:20.718Z,70.00
2022-09-17T10:22:52.408Z,70.30
2022-09-17T10:25:31.653Z,70.50
2022-09-17T10:28:03.123Z,70.40
2022-09-17T10:30:31.635Z,70.90
2022-09-17T10:33:22.298Z,71.00
2022-09-17T10:35:59.865Z,70.80
2022-09-17T10:38:32.025Z,70.40
2022-09-17T10:41:16.444Z,70.20
2022-09-17T10:43:45.035Z,69.70
2022-09-17T10:46:17.844Z,68.60
2022-09-17T10:48:54.866Z,69.30
2022-09-17T10:51:26.118Z,69.00
2022-09-17T10:54:34.265Z,68.10
2022-09-17T10:57:03.157Z,67.70
2022-09-17T10:59:48.782Z,67.90
2022-09-17T11:02:55.451Z,67.90
2022-09-17T11:05:46.881Z,68.20
2022-09-17T11:08:22.402Z,67.90
2022-09-17T11:11:01.458Z,67.60
2022-09-17T11:13:36.961Z,67.60
2022-09-17T11:16:16.418Z,67.60
2022-09-17T11:18:46.662Z,67.10
2022-09-17T11:21:39.783Z,66.90
2022-09-17T11:24:48.811Z,66.60
2022-09-17T11:27:29.660Z,66.00
2022-09-17T11:30:14.607Z,66.10
2022-09-17T11:33:26.828Z,66.40
2022-09-17T11:36:00.271Z,66.70
2022-09-17T11:38:44.350Z,66.70
2022-09-17T11:41:15.722Z,66.90
2022-09-17T11:43:50.249Z,67.10
2022-09-17T11:46:22.585Z,66.80
2022-09-17T11:48:58.617Z,66.00
2022-09-17T11:51:32.046Z,65.70
2022-09-17T11:54:07.909Z,65.00
2022-09-17T11:56:42.445Z,65.90
2022-09-17T11:59:19.653Z,66.50
2022-09-17T12:01:54.029Z,65.50
2022-09-17T12:04:33.765Z,65.60
2022-09-17T12:07:12.430Z,65.20
2022-09-17T12:09:44.290Z,65.10
2022-09-17T12:12:45.050Z,64.00
2022-09-17T12:15:17.275Z,63.10
2022-09-17T12:18:03.901Z,62.20
2022-09-17T12:20:43.857Z,61.40
2022-09-17T12:23:15.996Z,60.80
2022-09-17T12:25:52.588Z,60.40
2022-09-17T12:28:26.328Z,59.50
2022-09-17T12:31:04.482Z,59.20
2022-09-17T12:33:38.598Z,60.50
2022-09-17T12:36:35.047Z,61.20
2022-09-17T12:39:30.951Z,60.70
2022-09-17T12:42:08.729Z,61.90
2022-09-17T12:44:51.010Z,62.30
2022-09-17T12:47:45.120Z,61.10
2022-09-17T12:50:21.466Z,60.90
2022-09-17T12:53:03.595Z,60.10
2022-09-17T12:55:45.367Z,58.30
2022-09-17T12:58:25.214Z,58.30
2022-09-17T13:00:59.761Z,58.50
2022-09-17T13:03:33.927Z,57.10
2022-09-17T13:06:27.528Z,54.90
2022-09-17T13:09:13.417Z,56.40
2022-09-17T13:12:08.492Z,55.80
2022-09-17T13:14:57.993Z,55.40
2022-09-17T13:17:31.469Z,54.50
2022-09-17T13:20:07.187Z,54.60
2022-09-17T13:22:46.358Z,54.80
2022-09-17T13:25:17.868Z,55.00
2022-09-17T13:27:46.975Z,54.50
2022-09-17T13:30:16.365Z,52.60
2022-09-17T13:32:50.874Z,52.70
2022-09-17T13:35:54.081Z,51.20
2022-09-17T13:38:24.513Z,52.40
2022-09-17T13:40:53.370Z,52.50
2022-09-17T13:43:27.803Z,52.80
2022-09-17T13:46:15.575Z,53.10
2022-09-17T13:48:52.129Z,53.10
2022-09-17T13:51:47.790Z,52.70
2022-09-17T13:54:17.780Z,52.40
2022-09-17T13:56:47.650Z,52.30
2022-09-17T13:59:20.210Z,51.60
2022-09-17T14:02:01.071Z,51.00
2022-09-17T14:04:47.027Z,51.80
2022-09-17T14:07:51.153Z,51.80
2022-09-17T14:10:42.975Z,52.40
2022-09-17T14:13:40.156Z,52.40
2022-09-17T14:16:37.202Z,52.70
2022-09-17T14:19:22.481Z,52.60
2022-09-17T14:22:00.848Z,53.00
2022-09-17T14:24:36.204Z,53.20
2022-09-17T14:27:16.000Z,53.40
2022-09-17T14:30:03.960Z,53.50
2022-09-17T14:32:39.412Z,52.80
2022-09-17T14:35:20.116Z,53.10
2022-09-17T14:37:53.997Z,53.30
2022-09-17T14:40:25.160Z,53.30
2022-09-17T14:42:56.917Z,53.30
2022-09-17T14:45:29.271Z,53.50
2022-09-17T14:48:18.538Z,53.30
2022-09-17T14:50:46.682Z,53.50
2022-09-17T14:53:18.949Z,53.70
2022-09-17T14:55:50.446Z,53.70
2022-09-17T14:58:33.713Z,53.40
2022-09-17T15:01:02.225Z,51.80
2022-09-17T15:03:30.344Z,51.40
2022-09-17T15:05:58.555Z,51.40
2022-09-17T15:08:29.215Z,51.60
2022-09-17T15:11:02.218Z,51.80
2022-09-17T15:13:32.781Z,51.90
2022-09-17T15:16:03.920Z,51.50
2022-09-17T15:18:39.193Z,52.30
2022-09-17T15:21:30.059Z,52.80
2022-09-17T15:24:04.029Z,53.10
2022-09-17T15:26:36.691Z,51.60
2022-09-17T15:29:06.618Z,50.90
2022-09-17T15:31:36.864Z,49.40
2022-09-17T15:34:05.156Z,49.10
2022-09-17T15:36:33.451Z,47.70
2022-09-17T15:39:01.579Z,47.20
2022-09-17T15:41:35.451Z,47.60
2022-09-17T15:44:32.736Z,48.20
2022-09-17T15:47:52.370Z,48.20
2022-09-17T15:50:22.696Z,48.80
2022-09-17T15:52:51.810Z,48.80
2022-09-17T15:55:35.165Z,49.30
2022-09-17T15:58:07.053Z,49.30
2022-09-17T16:00:35.212Z,49.10
2022-09-17T16:04:09.179Z,49.40
2022-09-17T16:06:40.249Z,49.90
2022-09-17T16:09:41.087Z,50.10
2022-09-17T16:12:12.302Z,50.20
2022-09-17T16:14:44.866Z,50.60
2022-09-17T16:17:28.135Z,50.80
2022-09-17T16:19:56.887Z,51.10
2022-09-17T16:22:26.387Z,51.50
2022-09-17T16:24:54.544Z,51.60
2022-09-17T16:27:25.845Z,52.00
2022-09-17T16:30:01.913Z,52.20
2022-09-17T16:32:30.069Z,52.40
2022-09-17T16:34:58.256Z,52.70
2022-09-17T16:37:26.555Z,53.00
2022-09-17T16:39:54.830Z,53.10
2022-09-17T16:42:22.983Z,53.10
2022-09-17T16:44:51.118Z,53.30
2022-09-17T16:47:20.604Z,53.60
2022-09-17T16:49:48.750Z,53.90
2022-09-17T16:52:16.848Z,53.80
2022-09-17T16:54:45.019Z,53.90
2022-09-17T16:57:13.143Z,54.10
2022-09-17T16:59:41.252Z,54.40
2022-09-17T17:02:11.020Z,54.50
2022-09-17T17:04:40.525Z,54.80
2022-09-17T17:07:08.706Z,55.10
2022-09-17T17:09:38.020Z,55.20
2022-09-17T17:12:06.383Z,55.50
2022-09-17T17:14:34.516Z,55.70
2022-09-17T17:17:03.263Z,56.10
2022-09-17T17:19:31.535Z,56.40
2022-09-17T17:22:01.012Z,56.50
2022-09-17T17:24:29.138Z,57.00
2022-09-17T17:26:57.251Z,57.70
2022-09-17T17:29:25.393Z,57.90
2022-09-17T17:31:53.611Z,57.90
2022-09-17T17:34:21.942Z,58.10
2022-09-17T17:36:50.700Z,58.10
2022-09-17T17:39:20.189Z,58.60
2022-09-17T17:41:51.676Z,58.50
2022-09-17T17:44:20.195Z,58.80
2022-09-17T17:46:48.405Z,59.10
2022-09-17T17:49:17.020Z,59.30
2022-09-17T17:51:45.414Z,59.80
2022-09-17T17:54:13.501Z,60.20
2022-09-17T17:56:43.042Z,60.90
2022-09-17T17:59:11.169Z,61.60
2022-09-17T18:01:39.640Z,62.20
2022-09-17T18:04:08.758Z,62.90
2022-09-17T18:06:36.872Z,63.50
2022-09-17T18:09:05.800Z,63.80
2022-09-17T18:11:34.625Z,64.30
2022-09-17T18:14:04.545Z,64.40
2022-09-17T18:16:32.934Z,64.80
2022-09-17T18:19:01.202Z,65.10
2022-09-17T18:21:29.517Z,65.30
2022-09-17T18:23:57.667Z,65.40
2022-09-17T18:26:27.645Z,65.80
2022-09-17T18:28:56.181Z,66.00
2022-09-17T18:31:28.371Z,66.10
2022-09-17T18:33:58.771Z,66.10
2022-09-17T18:36:28.607Z,66.20
2022-09-17T18:39:11.026Z,66.00
2022-09-17T18:41:49.588Z,66.10
2022-09-17T18:44:19.064Z,66.10
2022-09-17T18:46:50.046Z,66.10
2022-09-17T18:49:18.606Z,66.00
2022-09-17T18:51:46.879Z,65.90
2022-09-17T18:54:15.075Z,66.00
2022-09-17T18:56:43.617Z,66.00
2022-09-17T18:59:11.897Z,66.10
2022-09-17T19:01:40.230Z,66.30
2022-09-17T19:04:10.135Z,66.20
2022-09-17T19:06:38.622Z,66.30
2022-09-17T19:09:07.470Z,66.10
2022-09-17T19:11:36.418Z,66.30
2022-09-17T19:14:04.923Z,66.40
2022-09-17T19:16:33.317Z,66.50
2022-09-17T19:19:01.638Z,66.40
2022-09-17T19:21:31.343Z,66.60
2022-09-17T19:23:59.554Z,66.70
2022-09-17T19:26:28.741Z,66.70
2022-09-17T19:28:58.802Z,66.70
2022-09-17T19:31:27.814Z,66.60
2022-09-17T19:33:58.515Z,66.50
2022-09-17T19:36:26.680Z,66.60
2022-09-17T19:38:58.611Z,66.60
2022-09-17T19:41:27.183Z,66.70
2022-09-17T19:43:57.258Z,67.10
2022-09-17T19:46:27.354Z,67.10
2022-09-17T19:48:57.312Z,67.20
2022-09-17T19:51:28.265Z,67.00
2022-09-17T19:53:57.819Z,67.10
2022-09-17T19:56:27.911Z,67.50
2022-09-17T19:58:56.766Z,67.80
2022-09-17T20:01:25.059Z,68.10
2022-09-17T20:03:54.198Z,68.00
2022-09-17T20:06:23.744Z,68.20
2022-09-17T20:08:53.275Z,68.40
2022-09-17T20:11:24.763Z,68.10
2022-09-17T20:13:58.148Z,67.50
2022-09-17T20:16:27.070Z,66.90
2022-09-17T20:18:55.385Z,66.50
2022-09-17T20:21:25.664Z,66.40
2022-09-17T20:23:54.264Z,66.50
2022-09-17T20:26:24.159Z,66.70
2022-09-17T20:28:53.177Z,67.10
2022-09-17T20:31:23.098Z,67.40
2022-09-17T20:33:54.219Z,67.30
2022-09-17T20:36:24.205Z,67.40
2022-09-17T20:41:43.299Z,67.90
2022-09-17T20:44:11.477Z,68.20
2022-09-17T20:46:39.959Z,68.20
2022-09-17T20:49:08.213Z,68.40
2022-09-17T20:51:36.541Z,68.50
2022-09-17T20:54:04.969Z,68.70
2022-09-17T20:56:34.752Z,68.80
2022-09-17T20:59:13.090Z,69.20
2022-09-17T21:01:44.854Z,69.60
2022-09-17T21:04:15.943Z,69.90
2022-09-17T21:06:44.449Z,70.70
2022-09-17T21:09:16.744Z,69.30
2022-09-17T21:11:46.118Z,68.80
2022-09-17T21:14:17.484Z,68.50
2022-09-17T21:16:46.657Z,68.50
2022-09-17T21:19:16.253Z,67.70
2022-09-17T21:21:44.719Z,67.50
2022-09-17T21:24:13.026Z,66.90
2022-09-17T21:26:41.150Z,66.60
2022-09-17T21:29:09.353Z,66.60
2022-09-17T21:31:39.631Z,66.60
2022-09-17T21:34:09.229Z,66.60
2022-09-17T21:36:39.033Z,66.40
2022-09-17T21:39:08.936Z,66.40
2022-09-17T21:41:42.148Z,66.50
2022-09-17T21:44:12.034Z,66.10
2022-09-17T21:46:42.584Z,65.90
2022-09-17T21:49:11.113Z,65.90
2022-09-17T21:51:41.234Z,65.90
2022-09-17T21:54:11.013Z,65.70
2022-09-17T21:56:39.602Z,65.50
2022-09-17T21:59:09.809Z,65.30
2022-09-17T22:01:42.348Z,65.60
2022-09-17T22:04:12.657Z,65.70
2022-09-17T22:06:41.588Z,65.70
2022-09-17T22:09:14.466Z,65.70
2022-09-17T22:11:43.075Z,65.50
2022-09-17T22:14:13.165Z,65.70
2022-09-17T22:16:44.979Z,65.60
2022-09-17T22:19:15.953Z,65.40
2022-09-17T22:21:47.323Z,65.20
2022-09-17T22:24:19.059Z,65.30
2022-09-17T22:26:52.949Z,65.30
2022-09-17T22:29:28.081Z,65.10
2022-09-17T22:31:57.817Z,64.80
2022-09-17T22:34:26.979Z,64.80
2022-09-17T22:36:55.120Z,64.80
2022-09-17T22:39:23.691Z,64.70
2022-09-17T22:41:51.776Z,64.70
2022-09-17T22:44:21.078Z,64.70
2022-09-17T22:46:51.663Z,64.80
2022-09-17T22:49:21.543Z,64.70
2022-09-17T22:51:52.215Z,64.60
2022-09-17T22:54:20.757Z,64.70
2022-09-17T22:56:49.208Z,64.40
2022-09-17T22:59:18.222Z,64.40
2022-09-17T23:01:46.729Z,64.00
2022-09-17T23:04:14.945Z,64.00
2022-09-17T23:06:44.401Z,64.20
2022-09-17T23:09:14.260Z,64.90
2022-09-17T23:11:42.399Z,65.70
2022-09-17T23:14:13.338Z,66.60
2022-09-17T23:16:43.223Z,67.40
2022-09-17T23:19:12.498Z,67.90
2022-09-17T23:21:40.947Z,68.20
2022-09-17T23:24:11.575Z,68.60
2022-09-17T23:26:39.680Z,68.70
2022-09-17T23:29:08.201Z,68.90
2022-09-17T23:31:36.367Z,69.00
2022-09-17T23:34:06.063Z,69.20
2022-09-17T23:36:36.096Z,69.30
2022-09-17T23:39:06.190Z,69.50
2022-09-17T23:41:37.831Z,69.50
2022-09-17T23:44:13.707Z,69.50
2022-09-17T23:46:44.317Z,69.70
2022-09-17T23:49:13.578Z,70.00
2022-09-17T23:51:41.983Z,70.10
2022-09-17T23:54:10.367Z,70.10
2022-09-17T23:56:40.008Z,70.20
2022-09-17T23:59:08.567Z,70.10
